sensor_id;sensor_type;location;lat;lon;timestamp;P1;durP1;ratioP1;P2;durP2;ratioP2
49722;SDS011;43484;43.608;1.458;2023-07-09T00:01:14;6.25;;;2.58;;
49722;SDS011;43484;43.608;1.458;2023-07-09T00:03:47;5.90;;;2.75;;
49722;SDS011;43484;43.608;1.458;2023-07-09T00:08:47;10.35;;;3.13;;
49722;SDS011;43484;43.608;1.458;2023-07-09T00:11:15;8.48;;;3.28;;
49722;SDS011;43484;43.608;1.458;2023-07-09T00:13:42;8.05;;;3.40;;
49722;SDS011;43484;43.608;1.458;2023-07-09T00:16:13;6.80;;;3.03;;
49722;SDS011;43484;43.608;1.458;2023-07-09T00:18:43;8.25;;;2.53;;
49722;SDS011;43484;43.608;1.458;2023-07-09T00:21:10;7.47;;;2.80;;
49722;SDS011;43484;43.608;1.458;2023-07-09T00:23:36;6.50;;;3.05;;
49722;SDS011;43484;43.608;1.458;2023-07-09T00:26:11;8.25;;;2.85;;
49722;SDS011;43484;43.608;1.458;2023-07-09T00:28:40;4.68;;;2.78;;
49722;SDS011;43484;43.608;1.458;2023-07-09T00:31:11;6.28;;;3.00;;
49722;SDS011;43484;43.608;1.458;2023-07-09T00:33:40;6.35;;;2.58;;
49722;SDS011;43484;43.608;1.458;2023-07-09T00:36:13;6.22;;;2.58;;
49722;SDS011;43484;43.608;1.458;2023-07-09T00:38:41;9.77;;;3.05;;
49722;SDS011;43484;43.608;1.458;2023-07-09T00:41:16;6.20;;;2.97;;
49722;SDS011;43484;43.608;1.458;2023-07-09T00:43:46;9.68;;;3.22;;
49722;SDS011;43484;43.608;1.458;2023-07-09T00:48:44;5.30;;;2.90;;
49722;SDS011;43484;43.608;1.458;2023-07-09T00:51:18;8.82;;;3.10;;
49722;SDS011;43484;43.608;1.458;2023-07-09T00:53:48;7.18;;;2.83;;
49722;SDS011;43484;43.608;1.458;2023-07-09T00:56:25;11.02;;;3.50;;
49722;SDS011;43484;43.608;1.458;2023-07-09T00:58:55;10.48;;;3.38;;
49722;SDS011;43484;43.608;1.458;2023-07-09T01:01:30;10.18;;;3.25;;
49722;SDS011;43484;43.608;1.458;2023-07-09T01:04:00;9.55;;;3.22;;
49722;SDS011;43484;43.608;1.458;2023-07-09T01:06:40;10.27;;;3.10;;
49722;SDS011;43484;43.608;1.458;2023-07-09T01:09:10;5.10;;;2.50;;
49722;SDS011;43484;43.608;1.458;2023-07-09T01:11:37;7.18;;;2.22;;
49722;SDS011;43484;43.608;1.458;2023-07-09T01:14:06;7.32;;;3.08;;
49722;SDS011;43484;43.608;1.458;2023-07-09T01:16:41;5.63;;;3.17;;
49722;SDS011;43484;43.608;1.458;2023-07-09T01:19:13;6.40;;;2.78;;
49722;SDS011;43484;43.608;1.458;2023-07-09T01:21:40;10.75;;;3.13;;
49722;SDS011;43484;43.608;1.458;2023-07-09T01:24:14;9.40;;;3.53;;
49722;SDS011;43484;43.608;1.458;2023-07-09T01:27:02;10.55;;;3.08;;
49722;SDS011;43484;43.608;1.458;2023-07-09T01:29:30;6.03;;;2.78;;
49722;SDS011;43484;43.608;1.458;2023-07-09T01:31:59;6.15;;;2.80;;
49722;SDS011;43484;43.608;1.458;2023-07-09T01:34:26;6.25;;;2.63;;
49722;SDS011;43484;43.608;1.458;2023-07-09T01:36:53;6.53;;;2.90;;
49722;SDS011;43484;43.608;1.458;2023-07-09T01:39:19;7.78;;;2.80;;
49722;SDS011;43484;43.608;1.458;2023-07-09T01:41:46;7.05;;;3.00;;
49722;SDS011;43484;43.608;1.458;2023-07-09T01:44:13;8.05;;;3.28;;
49722;SDS011;43484;43.608;1.458;2023-07-09T01:46:40;7.15;;;3.00;;
49722;SDS011;43484;43.608;1.458;2023-07-09T01:49:08;6.03;;;3.08;;
49722;SDS011;43484;43.608;1.458;2023-07-09T01:51:35;8.80;;;3.30;;
49722;SDS011;43484;43.608;1.458;2023-07-09T01:54:02;8.82;;;3.17;;
49722;SDS011;43484;43.608;1.458;2023-07-09T01:56:29;6.38;;;3.08;;
49722;SDS011;43484;43.608;1.458;2023-07-09T01:58:56;9.27;;;3.25;;
49722;SDS011;43484;43.608;1.458;2023-07-09T02:01:31;6.68;;;2.70;;
49722;SDS011;43484;43.608;1.458;2023-07-09T02:04:00;8.85;;;4.22;;
49722;SDS011;43484;43.608;1.458;2023-07-09T02:06:26;13.45;;;3.45;;
49722;SDS011;43484;43.608;1.458;2023-07-09T02:08:58;12.85;;;3.40;;
49722;SDS011;43484;43.608;1.458;2023-07-09T02:11:24;9.75;;;3.72;;
49722;SDS011;43484;43.608;1.458;2023-07-09T02:13:51;5.95;;;3.05;;
49722;SDS011;43484;43.608;1.458;2023-07-09T02:16:18;8.55;;;3.30;;
49722;SDS011;43484;43.608;1.458;2023-07-09T02:18:45;6.65;;;2.90;;
49722;SDS011;43484;43.608;1.458;2023-07-09T02:21:11;13.52;;;3.97;;
49722;SDS011;43484;43.608;1.458;2023-07-09T02:23:38;13.52;;;4.07;;
49722;SDS011;43484;43.608;1.458;2023-07-09T02:26:05;7.82;;;3.30;;
49722;SDS011;43484;43.608;1.458;2023-07-09T02:28:32;8.52;;;4.13;;
49722;SDS011;43484;43.608;1.458;2023-07-09T02:30:59;7.60;;;3.63;;
49722;SDS011;43484;43.608;1.458;2023-07-09T02:33:25;7.30;;;3.17;;
49722;SDS011;43484;43.608;1.458;2023-07-09T02:35:52;8.93;;;4.20;;
49722;SDS011;43484;43.608;1.458;2023-07-09T02:38:18;7.88;;;3.53;;
49722;SDS011;43484;43.608;1.458;2023-07-09T02:40:45;10.60;;;3.70;;
49722;SDS011;43484;43.608;1.458;2023-07-09T02:43:12;11.27;;;4.18;;
49722;SDS011;43484;43.608;1.458;2023-07-09T02:45:39;10.63;;;4.00;;
49722;SDS011;43484;43.608;1.458;2023-07-09T02:48:06;7.03;;;4.13;;
49722;SDS011;43484;43.608;1.458;2023-07-09T02:50:33;11.73;;;4.07;;
49722;SDS011;43484;43.608;1.458;2023-07-09T02:52:59;12.00;;;5.20;;
49722;SDS011;43484;43.608;1.458;2023-07-09T02:55:26;9.75;;;4.00;;
49722;SDS011;43484;43.608;1.458;2023-07-09T02:57:53;10.32;;;4.63;;
49722;SDS011;43484;43.608;1.458;2023-07-09T03:00:19;7.93;;;4.10;;
49722;SDS011;43484;43.608;1.458;2023-07-09T03:02:46;9.18;;;4.35;;
49722;SDS011;43484;43.608;1.458;2023-07-09T03:05:13;13.13;;;5.30;;
49722;SDS011;43484;43.608;1.458;2023-07-09T03:07:39;11.85;;;4.50;;
49722;SDS011;43484;43.608;1.458;2023-07-09T03:10:07;8.80;;;4.20;;
49722;SDS011;43484;43.608;1.458;2023-07-09T03:12:34;16.35;;;4.47;;
49722;SDS011;43484;43.608;1.458;2023-07-09T03:15:00;17.63;;;4.82;;
49722;SDS011;43484;43.608;1.458;2023-07-09T03:17:27;15.27;;;4.85;;
49722;SDS011;43484;43.608;1.458;2023-07-09T03:19:54;10.02;;;4.28;;
49722;SDS011;43484;43.608;1.458;2023-07-09T03:22:20;11.40;;;4.65;;
49722;SDS011;43484;43.608;1.458;2023-07-09T03:24:47;14.88;;;5.18;;
49722;SDS011;43484;43.608;1.458;2023-07-09T03:27:14;10.05;;;4.47;;
49722;SDS011;43484;43.608;1.458;2023-07-09T03:29:40;10.68;;;4.82;;
49722;SDS011;43484;43.608;1.458;2023-07-09T03:32:07;11.32;;;4.55;;
49722;SDS011;43484;43.608;1.458;2023-07-09T03:34:34;9.27;;;4.10;;
49722;SDS011;43484;43.608;1.458;2023-07-09T03:37:00;9.95;;;3.90;;
49722;SDS011;43484;43.608;1.458;2023-07-09T03:39:27;10.98;;;4.32;;
49722;SDS011;43484;43.608;1.458;2023-07-09T03:41:54;9.90;;;4.10;;
49722;SDS011;43484;43.608;1.458;2023-07-09T03:44:20;10.93;;;3.92;;
49722;SDS011;43484;43.608;1.458;2023-07-09T03:46:47;9.20;;;4.15;;
49722;SDS011;43484;43.608;1.458;2023-07-09T03:49:13;12.18;;;4.20;;
49722;SDS011;43484;43.608;1.458;2023-07-09T03:51:40;11.27;;;4.10;;
49722;SDS011;43484;43.608;1.458;2023-07-09T03:54:06;11.32;;;4.07;;
49722;SDS011;43484;43.608;1.458;2023-07-09T03:56:33;9.55;;;4.13;;
49722;SDS011;43484;43.608;1.458;2023-07-09T03:59:00;11.38;;;4.00;;
49722;SDS011;43484;43.608;1.458;2023-07-09T04:01:26;9.25;;;3.88;;
49722;SDS011;43484;43.608;1.458;2023-07-09T04:03:53;11.77;;;3.97;;
49722;SDS011;43484;43.608;1.458;2023-07-09T04:06:20;13.13;;;4.10;;
49722;SDS011;43484;43.608;1.458;2023-07-09T04:08:46;13.57;;;4.28;;
49722;SDS011;43484;43.608;1.458;2023-07-09T04:11:13;9.02;;;4.03;;
49722;SDS011;43484;43.608;1.458;2023-07-09T04:13:40;10.60;;;4.28;;
49722;SDS011;43484;43.608;1.458;2023-07-09T04:16:06;10.57;;;3.67;;
49722;SDS011;43484;43.608;1.458;2023-07-09T04:18:34;8.55;;;3.72;;
49722;SDS011;43484;43.608;1.458;2023-07-09T04:21:02;10.23;;;4.22;;
49722;SDS011;43484;43.608;1.458;2023-07-09T04:23:28;10.38;;;4.40;;
49722;SDS011;43484;43.608;1.458;2023-07-09T04:25:55;10.43;;;4.05;;
49722;SDS011;43484;43.608;1.458;2023-07-09T04:28:22;9.40;;;3.75;;
49722;SDS011;43484;43.608;1.458;2023-07-09T04:30:49;8.27;;;4.18;;
49722;SDS011;43484;43.608;1.458;2023-07-09T04:33:17;11.02;;;3.97;;
49722;SDS011;43484;43.608;1.458;2023-07-09T04:35:46;9.52;;;3.40;;
49722;SDS011;43484;43.608;1.458;2023-07-09T04:38:13;8.27;;;3.90;;
49722;SDS011;43484;43.608;1.458;2023-07-09T04:40:41;7.30;;;3.83;;
49722;SDS011;43484;43.608;1.458;2023-07-09T04:43:08;9.00;;;3.47;;
49722;SDS011;43484;43.608;1.458;2023-07-09T04:45:35;11.88;;;4.03;;
49722;SDS011;43484;43.608;1.458;2023-07-09T04:48:02;10.68;;;3.92;;
49722;SDS011;43484;43.608;1.458;2023-07-09T04:50:28;9.95;;;4.22;;
49722;SDS011;43484;43.608;1.458;2023-07-09T04:52:55;10.50;;;4.00;;
49722;SDS011;43484;43.608;1.458;2023-07-09T04:55:22;11.68;;;3.92;;
49722;SDS011;43484;43.608;1.458;2023-07-09T04:57:48;13.23;;;4.45;;
49722;SDS011;43484;43.608;1.458;2023-07-09T05:00:16;13.63;;;3.95;;
49722;SDS011;43484;43.608;1.458;2023-07-09T05:02:43;11.55;;;4.05;;
49722;SDS011;43484;43.608;1.458;2023-07-09T05:05:10;13.82;;;4.53;;
49722;SDS011;43484;43.608;1.458;2023-07-09T05:07:38;11.45;;;4.43;;
49722;SDS011;43484;43.608;1.458;2023-07-09T05:10:06;12.07;;;4.57;;
49722;SDS011;43484;43.608;1.458;2023-07-09T05:12:33;9.77;;;3.88;;
49722;SDS011;43484;43.608;1.458;2023-07-09T05:14:59;12.63;;;4.60;;
49722;SDS011;43484;43.608;1.458;2023-07-09T05:17:26;13.57;;;4.65;;
49722;SDS011;43484;43.608;1.458;2023-07-09T05:19:53;11.85;;;4.60;;
49722;SDS011;43484;43.608;1.458;2023-07-09T05:22:20;12.48;;;4.40;;
49722;SDS011;43484;43.608;1.458;2023-07-09T05:24:46;8.52;;;3.95;;
49722;SDS011;43484;43.608;1.458;2023-07-09T05:27:13;11.45;;;3.88;;
49722;SDS011;43484;43.608;1.458;2023-07-09T05:29:39;7.95;;;4.05;;
49722;SDS011;43484;43.608;1.458;2023-07-09T05:32:06;9.77;;;4.30;;
49722;SDS011;43484;43.608;1.458;2023-07-09T05:34:33;9.98;;;3.75;;
49722;SDS011;43484;43.608;1.458;2023-07-09T05:36:59;13.50;;;3.92;;
49722;SDS011;43484;43.608;1.458;2023-07-09T05:39:27;14.02;;;3.60;;
49722;SDS011;43484;43.608;1.458;2023-07-09T05:41:53;11.13;;;3.47;;
49722;SDS011;43484;43.608;1.458;2023-07-09T05:44:20;6.93;;;3.47;;
49722;SDS011;43484;43.608;1.458;2023-07-09T05:46:46;13.75;;;3.70;;
49722;SDS011;43484;43.608;1.458;2023-07-09T05:49:13;10.20;;;4.60;;
49722;SDS011;43484;43.608;1.458;2023-07-09T05:51:40;8.30;;;3.90;;
49722;SDS011;43484;43.608;1.458;2023-07-09T05:54:06;11.48;;;3.95;;
49722;SDS011;43484;43.608;1.458;2023-07-09T05:56:33;11.18;;;4.18;;
49722;SDS011;43484;43.608;1.458;2023-07-09T05:59:00;8.55;;;4.35;;
49722;SDS011;43484;43.608;1.458;2023-07-09T06:01:27;8.13;;;3.75;;
49722;SDS011;43484;43.608;1.458;2023-07-09T06:03:53;10.65;;;4.35;;
49722;SDS011;43484;43.608;1.458;2023-07-09T06:06:20;9.75;;;4.45;;
49722;SDS011;43484;43.608;1.458;2023-07-09T06:08:48;8.85;;;4.20;;
49722;SDS011;43484;43.608;1.458;2023-07-09T06:11:16;12.90;;;4.18;;
49722;SDS011;43484;43.608;1.458;2023-07-09T06:13:45;12.77;;;4.38;;
49722;SDS011;43484;43.608;1.458;2023-07-09T06:16:14;9.43;;;4.07;;
49722;SDS011;43484;43.608;1.458;2023-07-09T06:18:42;10.77;;;3.92;;
49722;SDS011;43484;43.608;1.458;2023-07-09T06:21:08;7.13;;;3.33;;
49722;SDS011;43484;43.608;1.458;2023-07-09T06:23:37;15.75;;;4.28;;
49722;SDS011;43484;43.608;1.458;2023-07-09T06:26:05;8.07;;;4.35;;
49722;SDS011;43484;43.608;1.458;2023-07-09T06:28:32;10.70;;;4.80;;
49722;SDS011;43484;43.608;1.458;2023-07-09T06:30:59;9.43;;;3.97;;
49722;SDS011;43484;43.608;1.458;2023-07-09T06:33:26;9.70;;;4.07;;
49722;SDS011;43484;43.608;1.458;2023-07-09T06:35:54;10.98;;;4.57;;
49722;SDS011;43484;43.608;1.458;2023-07-09T06:38:25;11.23;;;4.50;;
49722;SDS011;43484;43.608;1.458;2023-07-09T06:40:52;9.90;;;5.07;;
49722;SDS011;43484;43.608;1.458;2023-07-09T06:43:20;13.95;;;5.40;;
49722;SDS011;43484;43.608;1.458;2023-07-09T06:45:57;11.10;;;5.18;;
49722;SDS011;43484;43.608;1.458;2023-07-09T06:48:25;12.25;;;6.53;;
49722;SDS011;43484;43.608;1.458;2023-07-09T06:50:53;11.90;;;5.85;;
49722;SDS011;43484;43.608;1.458;2023-07-09T06:53:22;14.80;;;5.68;;
49722;SDS011;43484;43.608;1.458;2023-07-09T06:55:49;15.35;;;6.82;;
49722;SDS011;43484;43.608;1.458;2023-07-09T06:58:16;8.50;;;4.97;;
49722;SDS011;43484;43.608;1.458;2023-07-09T07:00:44;11.40;;;6.18;;
49722;SDS011;43484;43.608;1.458;2023-07-09T07:03:12;10.90;;;6.40;;
49722;SDS011;43484;43.608;1.458;2023-07-09T07:05:42;14.82;;;6.28;;
49722;SDS011;43484;43.608;1.458;2023-07-09T07:08:17;11.15;;;7.07;;
49722;SDS011;43484;43.608;1.458;2023-07-09T07:10:46;15.30;;;6.40;;
49722;SDS011;43484;43.608;1.458;2023-07-09T07:13:14;9.52;;;6.70;;
49722;SDS011;43484;43.608;1.458;2023-07-09T07:15:41;9.68;;;6.00;;
49722;SDS011;43484;43.608;1.458;2023-07-09T07:18:08;10.50;;;6.75;;
49722;SDS011;43484;43.608;1.458;2023-07-09T07:20:35;13.95;;;7.60;;
49722;SDS011;43484;43.608;1.458;2023-07-09T07:23:01;13.60;;;8.23;;
49722;SDS011;43484;43.608;1.458;2023-07-09T07:25:28;11.30;;;7.53;;
49722;SDS011;43484;43.608;1.458;2023-07-09T07:27:56;15.80;;;8.43;;
49722;SDS011;43484;43.608;1.458;2023-07-09T07:30:23;13.02;;;7.65;;
49722;SDS011;43484;43.608;1.458;2023-07-09T07:32:51;12.88;;;6.75;;
49722;SDS011;43484;43.608;1.458;2023-07-09T07:35:18;13.27;;;8.23;;
49722;SDS011;43484;43.608;1.458;2023-07-09T07:37:45;11.02;;;7.55;;
49722;SDS011;43484;43.608;1.458;2023-07-09T07:40:12;13.52;;;9.18;;
49722;SDS011;43484;43.608;1.458;2023-07-09T07:42:39;12.20;;;9.23;;
49722;SDS011;43484;43.608;1.458;2023-07-09T07:45:06;13.98;;;8.55;;
49722;SDS011;43484;43.608;1.458;2023-07-09T07:47:34;12.77;;;9.10;;
49722;SDS011;43484;43.608;1.458;2023-07-09T07:50:04;16.42;;;9.15;;
49722;SDS011;43484;43.608;1.458;2023-07-09T07:52:31;12.85;;;8.90;;
49722;SDS011;43484;43.608;1.458;2023-07-09T07:54:58;16.55;;;9.57;;
49722;SDS011;43484;43.608;1.458;2023-07-09T07:57:25;13.15;;;8.30;;
49722;SDS011;43484;43.608;1.458;2023-07-09T07:59:52;17.20;;;8.10;;
49722;SDS011;43484;43.608;1.458;2023-07-09T08:02:19;13.18;;;8.85;;
49722;SDS011;43484;43.608;1.458;2023-07-09T08:04:45;16.23;;;9.18;;
49722;SDS011;43484;43.608;1.458;2023-07-09T08:07:12;16.13;;;9.93;;
49722;SDS011;43484;43.608;1.458;2023-07-09T08:09:39;12.05;;;9.30;;
49722;SDS011;43484;43.608;1.458;2023-07-09T08:12:06;16.17;;;9.00;;
49722;SDS011;43484;43.608;1.458;2023-07-09T08:14:42;15.20;;;9.57;;
49722;SDS011;43484;43.608;1.458;2023-07-09T08:17:10;12.63;;;8.30;;
49722;SDS011;43484;43.608;1.458;2023-07-09T08:19:47;19.75;;;9.40;;
49722;SDS011;43484;43.608;1.458;2023-07-09T08:22:16;12.63;;;9.25;;
49722;SDS011;43484;43.608;1.458;2023-07-09T08:24:43;10.50;;;8.55;;
49722;SDS011;43484;43.608;1.458;2023-07-09T08:27:09;14.98;;;8.15;;
49722;SDS011;43484;43.608;1.458;2023-07-09T08:29:36;13.10;;;8.20;;
49722;SDS011;43484;43.608;1.458;2023-07-09T08:32:03;13.18;;;9.05;;
49722;SDS011;43484;43.608;1.458;2023-07-09T08:34:30;10.50;;;8.07;;
49722;SDS011;43484;43.608;1.458;2023-07-09T08:36:57;13.20;;;8.32;;
49722;SDS011;43484;43.608;1.458;2023-07-09T08:39:24;12.95;;;7.82;;
49722;SDS011;43484;43.608;1.458;2023-07-09T08:42:35;13.73;;;8.00;;
49722;SDS011;43484;43.608;1.458;2023-07-09T08:47:44;12.70;;;7.57;;
49722;SDS011;43484;43.608;1.458;2023-07-09T08:50:24;14.63;;;8.07;;
49722;SDS011;43484;43.608;1.458;2023-07-09T08:52:55;15.70;;;9.32;;
49722;SDS011;43484;43.608;1.458;2023-07-09T08:55:25;16.08;;;9.15;;
49722;SDS011;43484;43.608;1.458;2023-07-09T08:57:56;15.18;;;8.93;;
49722;SDS011;43484;43.608;1.458;2023-07-09T09:00:31;21.35;;;10.00;;
49722;SDS011;43484;43.608;1.458;2023-07-09T09:03:13;16.52;;;9.60;;
49722;SDS011;43484;43.608;1.458;2023-07-09T09:05:43;11.60;;;8.65;;
49722;SDS011;43484;43.608;1.458;2023-07-09T09:08:24;14.23;;;9.23;;
49722;SDS011;43484;43.608;1.458;2023-07-09T09:10:56;11.02;;;8.52;;
49722;SDS011;43484;43.608;1.458;2023-07-09T09:13:38;16.50;;;8.68;;
49722;SDS011;43484;43.608;1.458;2023-07-09T09:16:09;11.98;;;9.55;;
49722;SDS011;43484;43.608;1.458;2023-07-09T09:18:43;14.85;;;9.40;;
49722;SDS011;43484;43.608;1.458;2023-07-09T09:23:57;13.82;;;10.63;;
49722;SDS011;43484;43.608;1.458;2023-07-09T09:26:30;16.15;;;10.77;;
49722;SDS011;43484;43.608;1.458;2023-07-09T09:29:01;16.02;;;10.68;;
49722;SDS011;43484;43.608;1.458;2023-07-09T09:31:37;15.13;;;10.98;;
49722;SDS011;43484;43.608;1.458;2023-07-09T09:34:05;17.60;;;10.73;;
49722;SDS011;43484;43.608;1.458;2023-07-09T09:36:31;13.70;;;9.55;;
49722;SDS011;43484;43.608;1.458;2023-07-09T09:39:03;16.23;;;9.85;;
49722;SDS011;43484;43.608;1.458;2023-07-09T09:41:30;14.32;;;10.30;;
49722;SDS011;43484;43.608;1.458;2023-07-09T09:44:00;12.45;;;9.02;;
49722;SDS011;43484;43.608;1.458;2023-07-09T09:46:30;11.48;;;9.50;;
49722;SDS011;43484;43.608;1.458;2023-07-09T09:48:59;9.75;;;8.70;;
49722;SDS011;43484;43.608;1.458;2023-07-09T09:51:27;14.00;;;9.13;;
49722;SDS011;43484;43.608;1.458;2023-07-09T09:53:58;12.43;;;9.55;;
49722;SDS011;43484;43.608;1.458;2023-07-09T09:56:36;11.30;;;9.98;;
49722;SDS011;43484;43.608;1.458;2023-07-09T09:59:04;14.50;;;10.32;;
49722;SDS011;43484;43.608;1.458;2023-07-09T10:01:33;12.63;;;9.88;;
49722;SDS011;43484;43.608;1.458;2023-07-09T10:04:03;15.35;;;9.45;;
49722;SDS011;43484;43.608;1.458;2023-07-09T10:06:41;12.93;;;10.23;;
49722;SDS011;43484;43.608;1.458;2023-07-09T10:09:19;12.73;;;10.88;;
49722;SDS011;43484;43.608;1.458;2023-07-09T10:17:47;13.50;;;10.75;;
49722;SDS011;43484;43.608;1.458;2023-07-09T10:23:46;15.48;;;10.18;;
49722;SDS011;43484;43.608;1.458;2023-07-09T10:26:27;13.38;;;9.65;;
49722;SDS011;43484;43.608;1.458;2023-07-09T10:40:41;16.25;;;10.27;;
49722;SDS011;43484;43.608;1.458;2023-07-09T10:43:15;12.82;;;10.05;;
49722;SDS011;43484;43.608;1.458;2023-07-09T10:45:47;19.20;;;11.00;;
49722;SDS011;43484;43.608;1.458;2023-07-09T10:48:34;16.75;;;10.27;;
49722;SDS011;43484;43.608;1.458;2023-07-09T10:51:05;12.80;;;9.95;;
49722;SDS011;43484;43.608;1.458;2023-07-09T10:56:45;12.65;;;9.65;;
49722;SDS011;43484;43.608;1.458;2023-07-09T10:59:21;13.63;;;10.32;;
49722;SDS011;43484;43.608;1.458;2023-07-09T11:01:56;11.85;;;10.57;;
49722;SDS011;43484;43.608;1.458;2023-07-09T11:04:32;13.05;;;11.05;;
49722;SDS011;43484;43.608;1.458;2023-07-09T11:07:05;12.50;;;10.05;;
49722;SDS011;43484;43.608;1.458;2023-07-09T11:09:38;15.73;;;10.63;;
49722;SDS011;43484;43.608;1.458;2023-07-09T11:12:13;12.27;;;10.75;;
49722;SDS011;43484;43.608;1.458;2023-07-09T11:14:47;16.30;;;10.95;;
49722;SDS011;43484;43.608;1.458;2023-07-09T11:17:19;12.30;;;10.95;;
49722;SDS011;43484;43.608;1.458;2023-07-09T11:19:53;16.58;;;11.00;;
49722;SDS011;43484;43.608;1.458;2023-07-09T11:22:23;12.23;;;10.23;;
49722;SDS011;43484;43.608;1.458;2023-07-09T11:24:53;15.68;;;11.05;;
49722;SDS011;43484;43.608;1.458;2023-07-09T11:27:33;12.63;;;10.95;;
49722;SDS011;43484;43.608;1.458;2023-07-09T11:33:16;17.80;;;10.73;;
49722;SDS011;43484;43.608;1.458;2023-07-09T11:35:53;15.23;;;10.73;;
49722;SDS011;43484;43.608;1.458;2023-07-09T11:38:38;12.15;;;10.82;;
49722;SDS011;43484;43.608;1.458;2023-07-09T11:47:29;14.60;;;10.50;;
49722;SDS011;43484;43.608;1.458;2023-07-09T11:50:00;18.30;;;10.82;;
49722;SDS011;43484;43.608;1.458;2023-07-09T11:52:32;17.02;;;11.13;;
49722;SDS011;43484;43.608;1.458;2023-07-09T11:58:05;13.88;;;10.27;;
49722;SDS011;43484;43.608;1.458;2023-07-09T12:00:41;12.68;;;10.00;;
49722;SDS011;43484;43.608;1.458;2023-07-09T12:03:22;12.13;;;9.68;;
49722;SDS011;43484;43.608;1.458;2023-07-09T12:05:53;13.43;;;9.27;;
49722;SDS011;43484;43.608;1.458;2023-07-09T12:08:25;14.68;;;10.38;;
49722;SDS011;43484;43.608;1.458;2023-07-09T12:13:25;12.80;;;9.50;;
49722;SDS011;43484;43.608;1.458;2023-07-09T12:15:51;12.63;;;9.45;;
49722;SDS011;43484;43.608;1.458;2023-07-09T12:18:18;14.80;;;10.10;;
49722;SDS011;43484;43.608;1.458;2023-07-09T12:20:47;13.27;;;9.38;;
49722;SDS011;43484;43.608;1.458;2023-07-09T12:25:54;10.57;;;9.00;;
49722;SDS011;43484;43.608;1.458;2023-07-09T12:28:21;15.43;;;9.63;;
49722;SDS011;43484;43.608;1.458;2023-07-09T12:30:49;14.82;;;9.48;;
49722;SDS011;43484;43.608;1.458;2023-07-09T12:33:18;10.90;;;9.13;;
49722;SDS011;43484;43.608;1.458;2023-07-09T12:35:46;13.48;;;8.23;;
49722;SDS011;43484;43.608;1.458;2023-07-09T12:38:21;17.48;;;9.05;;
49722;SDS011;43484;43.608;1.458;2023-07-09T12:40:49;12.23;;;8.07;;
49722;SDS011;43484;43.608;1.458;2023-07-09T12:43:17;12.15;;;8.05;;
49722;SDS011;43484;43.608;1.458;2023-07-09T12:45:51;10.30;;;8.35;;
49722;SDS011;43484;43.608;1.458;2023-07-09T12:48:24;17.92;;;8.77;;
49722;SDS011;43484;43.608;1.458;2023-07-09T12:50:56;11.77;;;9.07;;
49722;SDS011;43484;43.608;1.458;2023-07-09T12:53:26;15.02;;;8.52;;
49722;SDS011;43484;43.608;1.458;2023-07-09T12:55:57;10.45;;;8.32;;
49722;SDS011;43484;43.608;1.458;2023-07-09T12:58:27;11.68;;;8.82;;
49722;SDS011;43484;43.608;1.458;2023-07-09T13:01:00;11.82;;;8.05;;
49722;SDS011;43484;43.608;1.458;2023-07-09T13:03:33;11.00;;;8.20;;
49722;SDS011;43484;43.608;1.458;2023-07-09T13:06:03;11.18;;;8.23;;
49722;SDS011;43484;43.608;1.458;2023-07-09T13:08:41;13.07;;;7.40;;
49722;SDS011;43484;43.608;1.458;2023-07-09T13:11:16;11.85;;;8.30;;
49722;SDS011;43484;43.608;1.458;2023-07-09T13:14:05;13.75;;;7.40;;
49722;SDS011;43484;43.608;1.458;2023-07-09T13:16:38;9.50;;;7.40;;
49722;SDS011;43484;43.608;1.458;2023-07-09T13:19:10;14.23;;;7.55;;
49722;SDS011;43484;43.608;1.458;2023-07-09T13:21:37;12.98;;;7.43;;
49722;SDS011;43484;43.608;1.458;2023-07-09T13:24:22;8.90;;;7.35;;
49722;SDS011;43484;43.608;1.458;2023-07-09T13:26:51;10.48;;;7.38;;
49722;SDS011;43484;43.608;1.458;2023-07-09T13:29:18;13.07;;;7.05;;
49722;SDS011;43484;43.608;1.458;2023-07-09T13:31:46;10.35;;;7.20;;
49722;SDS011;43484;43.608;1.458;2023-07-09T13:34:21;9.68;;;7.10;;
49722;SDS011;43484;43.608;1.458;2023-07-09T13:36:51;13.82;;;6.72;;
49722;SDS011;43484;43.608;1.458;2023-07-09T13:39:20;13.82;;;7.53;;
49722;SDS011;43484;43.608;1.458;2023-07-09T13:41:47;10.65;;;6.93;;
49722;SDS011;43484;43.608;1.458;2023-07-09T13:46:45;8.45;;;7.03;;
49722;SDS011;43484;43.608;1.458;2023-07-09T13:49:13;8.63;;;7.03;;
49722;SDS011;43484;43.608;1.458;2023-07-09T13:51:45;16.45;;;6.90;;
49722;SDS011;43484;43.608;1.458;2023-07-09T13:54:14;11.57;;;6.65;;
49722;SDS011;43484;43.608;1.458;2023-07-09T13:56:43;11.15;;;6.30;;
49722;SDS011;43484;43.608;1.458;2023-07-09T13:59:13;10.27;;;6.43;;
49722;SDS011;43484;43.608;1.458;2023-07-09T14:01:41;12.75;;;6.20;;
49722;SDS011;43484;43.608;1.458;2023-07-09T14:04:09;11.10;;;5.82;;
49722;SDS011;43484;43.608;1.458;2023-07-09T14:06:37;8.32;;;6.38;;
49722;SDS011;43484;43.608;1.458;2023-07-09T14:09:04;9.57;;;6.00;;
49722;SDS011;43484;43.608;1.458;2023-07-09T14:11:32;8.20;;;6.22;;
49722;SDS011;43484;43.608;1.458;2023-07-09T14:13:59;10.15;;;6.32;;
49722;SDS011;43484;43.608;1.458;2023-07-09T14:16:26;7.38;;;5.53;;
49722;SDS011;43484;43.608;1.458;2023-07-09T14:18:53;11.88;;;5.85;;
49722;SDS011;43484;43.608;1.458;2023-07-09T14:21:25;9.82;;;6.28;;
49722;SDS011;43484;43.608;1.458;2023-07-09T14:23:53;11.52;;;5.40;;
49722;SDS011;43484;43.608;1.458;2023-07-09T14:26:20;8.95;;;5.63;;
49722;SDS011;43484;43.608;1.458;2023-07-09T14:28:46;8.02;;;5.47;;
49722;SDS011;43484;43.608;1.458;2023-07-09T14:31:23;8.82;;;5.88;;
49722;SDS011;43484;43.608;1.458;2023-07-09T14:33:53;12.32;;;6.18;;
49722;SDS011;43484;43.608;1.458;2023-07-09T14:36:21;12.88;;;6.28;;
49722;SDS011;43484;43.608;1.458;2023-07-09T14:38:48;11.75;;;5.72;;
49722;SDS011;43484;43.608;1.458;2023-07-09T14:41:18;9.43;;;5.30;;
49722;SDS011;43484;43.608;1.458;2023-07-09T14:43:48;7.90;;;5.28;;
49722;SDS011;43484;43.608;1.458;2023-07-09T14:46:15;9.30;;;5.50;;
49722;SDS011;43484;43.608;1.458;2023-07-09T14:48:42;5.97;;;5.03;;
49722;SDS011;43484;43.608;1.458;2023-07-09T14:51:14;5.85;;;5.07;;
49722;SDS011;43484;43.608;1.458;2023-07-09T14:53:42;9.75;;;5.10;;
49722;SDS011;43484;43.608;1.458;2023-07-09T14:56:11;10.15;;;5.72;;
49722;SDS011;43484;43.608;1.458;2023-07-09T14:58:40;9.68;;;5.63;;
49722;SDS011;43484;43.608;1.458;2023-07-09T15:01:13;18.13;;;5.32;;
49722;SDS011;43484;43.608;1.458;2023-07-09T15:03:41;7.32;;;5.25;;
49722;SDS011;43484;43.608;1.458;2023-07-09T15:06:08;9.65;;;5.10;;
49722;SDS011;43484;43.608;1.458;2023-07-09T15:08:35;10.25;;;5.40;;
49722;SDS011;43484;43.608;1.458;2023-07-09T15:11:03;8.02;;;5.40;;
49722;SDS011;43484;43.608;1.458;2023-07-09T15:13:31;7.50;;;5.43;;
49722;SDS011;43484;43.608;1.458;2023-07-09T15:16:00;9.88;;;5.72;;
49722;SDS011;43484;43.608;1.458;2023-07-09T15:18:27;13.68;;;5.28;;
49722;SDS011;43484;43.608;1.458;2023-07-09T15:20:55;10.20;;;5.28;;
49722;SDS011;43484;43.608;1.458;2023-07-09T15:23:24;12.43;;;5.68;;
49722;SDS011;43484;43.608;1.458;2023-07-09T15:25:53;14.55;;;5.82;;
49722;SDS011;43484;43.608;1.458;2023-07-09T15:28:21;8.30;;;5.57;;
49722;SDS011;43484;43.608;1.458;2023-07-09T15:30:47;11.23;;;5.60;;
49722;SDS011;43484;43.608;1.458;2023-07-09T15:33:15;10.80;;;5.25;;
49722;SDS011;43484;43.608;1.458;2023-07-09T15:35:44;9.63;;;5.72;;
49722;SDS011;43484;43.608;1.458;2023-07-09T15:40:45;10.38;;;5.60;;
49722;SDS011;43484;43.608;1.458;2023-07-09T15:43:14;12.45;;;5.28;;
49722;SDS011;43484;43.608;1.458;2023-07-09T15:45:43;6.65;;;5.20;;
49722;SDS011;43484;43.608;1.458;2023-07-09T15:48:30;10.77;;;5.63;;